sensor_id;sensor_type;location;lat;lon;timestamp;pressure;altitude;pressure_sealevel;temperature;humidity
21817;BME280;13247;47.504;7.382;2023-02-23T00:02:31;97027.00;;;9.44;100.00
21817;BME280;13247;47.504;7.382;2023-02-23T00:05:17;97020.88;;;9.18;100.00
21817;BME280;13247;47.504;7.382;2023-02-23T00:08:01;97021.41;;;9.00;100.00
21817;BME280;13247;47.504;7.382;2023-02-23T00:10:46;97022.88;;;9.10;100.00
21817;BME280;13247;47.504;7.382;2023-02-23T00:13:32;97020.53;;;9.01;100.00
21817;BME280;13247;47.504;7.382;2023-02-23T00:16:22;97007.00;;;9.16;100.00
21817;BME280;13247;47.504;7.382;2023-02-23T00:19:07;97019.47;;;9.34;100.00
21817;BME280;13247;47.504;7.382;2023-02-23T00:21:53;97020.44;;;9.31;100.00
21817;BME280;13247;47.504;7.382;2023-02-23T00:24:38;97018.59;;;9.35;100.00
21817;BME280;13247;47.504;7.382;2023-02-23T00:27:25;97015.25;;;9.30;100.00
21817;BME280;13247;47.504;7.382;2023-02-23T00:30:15;97020.34;;;9.34;100.00
21817;BME280;13247;47.504;7.382;2023-02-23T00:33:01;97022.81;;;9.39;100.00
21817;BME280;13247;47.504;7.382;2023-02-23T00:35:46;97014.97;;;9.39;100.00
21817;BME280;13247;47.504;7.382;2023-02-23T00:38:31;97014.78;;;9.17;100.00
21817;BME280;13247;47.504;7.382;2023-02-23T00:41:19;97023.38;;;9.21;100.00
21817;BME280;13247;47.504;7.382;2023-02-23T00:44:12;97018.78;;;9.01;100.00
21817;BME280;13247;47.504;7.382;2023-02-23T00:46:59;97012.59;;;9.04;100.00
21817;BME280;13247;47.504;7.382;2023-02-23T00:49:44;97021.59;;;8.94;100.00
21817;BME280;13247;47.504;7.382;2023-02-23T00:52:29;97016.00;;;8.77;100.00
21817;BME280;13247;47.504;7.382;2023-02-23T00:55:14;97013.25;;;8.83;100.00
21817;BME280;13247;47.504;7.382;2023-02-23T00:57:59;97005.63;;;8.75;100.00
21817;BME280;13247;47.504;7.382;2023-02-23T01:00:43;97009.41;;;8.65;100.00
21817;BME280;13247;47.504;7.382;2023-02-23T01:03:29;97013.59;;;8.70;100.00
21817;BME280;13247;47.504;7.382;2023-02-23T01:06:16;97004.13;;;8.66;100.00
21817;BME280;13247;47.504;7.382;2023-02-23T01:09:04;96998.91;;;8.66;100.00
21817;BME280;13247;47.504;7.382;2023-02-23T01:11:49;96998.19;;;8.61;100.00
21817;BME280;13247;47.504;7.382;2023-02-23T01:14:34;97010.28;;;8.64;100.00
21817;BME280;13247;47.504;7.382;2023-02-23T01:17:21;97001.25;;;8.76;100.00
21817;BME280;13247;47.504;7.382;2023-02-23T01:20:06;97002.78;;;8.83;100.00
21817;BME280;13247;47.504;7.382;2023-02-23T01:23:03;97008.47;;;8.67;100.00
21817;BME280;13247;47.504;7.382;2023-02-23T01:25:48;97002.44;;;8.64;100.00
21817;BME280;13247;47.504;7.382;2023-02-23T01:28:33;97005.47;;;8.80;100.00
21817;BME280;13247;47.504;7.382;2023-02-23T01:31:19;97000.19;;;8.81;100.00
21817;BME280;13247;47.504;7.382;2023-02-23T01:34:05;96993.28;;;8.80;100.00
21817;BME280;13247;47.504;7.382;2023-02-23T01:36:50;96994.84;;;8.86;100.00
21817;BME280;13247;47.504;7.382;2023-02-23T01:39:35;97001.31;;;8.74;100.00
21817;BME280;13247;47.504;7.382;2023-02-23T01:42:19;97001.63;;;8.63;100.00
21817;BME280;13247;47.504;7.382;2023-02-23T01:48:16;97003.88;;;8.76;100.00
21817;BME280;13247;47.504;7.382;2023-02-23T01:51:12;96998.41;;;8.83;100.00
21817;BME280;13247;47.504;7.382;2023-02-23T01:54:11;97004.50;;;8.84;100.00
21817;BME280;13247;47.504;7.382;2023-02-23T01:57:01;96987.53;;;8.97;100.00
21817;BME280;13247;47.504;7.382;2023-02-23T01:59:49;96991.22;;;8.91;100.00
21817;BME280;13247;47.504;7.382;2023-02-23T02:02:34;97008.78;;;8.86;100.00
21817;BME280;13247;47.504;7.382;2023-02-23T02:05:19;96997.38;;;8.89;100.00
21817;BME280;13247;47.504;7.382;2023-02-23T02:08:04;96988.53;;;8.93;100.00
21817;BME280;13247;47.504;7.382;2023-02-23T02:10:52;96996.72;;;9.10;100.00
21817;BME280;13247;47.504;7.382;2023-02-23T02:13:41;96986.94;;;9.15;100.00
21817;BME280;13247;47.504;7.382;2023-02-23T02:16:38;96979.38;;;9.33;100.00
21817;BME280;13247;47.504;7.382;2023-02-23T02:19:50;96979.31;;;9.09;100.00
21817;BME280;13247;47.504;7.382;2023-02-23T02:25:59;96988.63;;;8.90;100.00
21817;BME280;13247;47.504;7.382;2023-02-23T02:47:23;96969.63;;;8.83;100.00
21817;BME280;13247;47.504;7.382;2023-02-23T02:50:22;96976.81;;;8.77;100.00
21817;BME280;13247;47.504;7.382;2023-02-23T02:53:25;96974.78;;;8.86;100.00
21817;BME280;13247;47.504;7.382;2023-02-23T02:56:14;96968.88;;;8.80;100.00
21817;BME280;13247;47.504;7.382;2023-02-23T02:59:03;96963.53;;;9.12;100.00
21817;BME280;13247;47.504;7.382;2023-02-23T03:01:49;96962.41;;;9.19;100.00
21817;BME280;13247;47.504;7.382;2023-02-23T03:04:53;96966.88;;;9.15;100.00
21817;BME280;13247;47.504;7.382;2023-02-23T03:08:20;96971.72;;;9.00;100.00
21817;BME280;13247;47.504;7.382;2023-02-23T03:11:30;96968.47;;;8.64;100.00
21817;BME280;13247;47.504;7.382;2023-02-23T03:17:52;96967.47;;;8.68;100.00
21817;BME280;13247;47.504;7.382;2023-02-23T03:21:04;96969.28;;;8.66;100.00
21817;BME280;13247;47.504;7.382;2023-02-23T03:24:25;96971.25;;;8.59;100.00
21817;BME280;13247;47.504;7.382;2023-02-23T03:34:14;96970.09;;;8.68;100.00
21817;BME280;13247;47.504;7.382;2023-02-23T03:37:38;96971.41;;;8.83;100.00
21817;BME280;13247;47.504;7.382;2023-02-23T03:40:46;96960.97;;;8.83;100.00
21817;BME280;13247;47.504;7.382;2023-02-23T03:43:56;96971.25;;;8.87;100.00
21817;BME280;13247;47.504;7.382;2023-02-23T03:47:02;96961.00;;;8.81;100.00
21817;BME280;13247;47.504;7.382;2023-02-23T03:50:11;96957.25;;;8.90;100.00
21817;BME280;13247;47.504;7.382;2023-02-23T03:53:27;96949.19;;;8.96;100.00
21817;BME280;13247;47.504;7.382;2023-02-23T03:56:36;96953.81;;;9.15;100.00
21817;BME280;13247;47.504;7.382;2023-02-23T03:59:45;96950.91;;;9.24;100.00
21817;BME280;13247;47.504;7.382;2023-02-23T04:02:51;96955.47;;;9.44;100.00
21817;BME280;13247;47.504;7.382;2023-02-23T04:05:57;96953.19;;;9.33;100.00
21817;BME280;13247;47.504;7.382;2023-02-23T04:09:03;96955.06;;;9.30;100.00
21817;BME280;13247;47.504;7.382;2023-02-23T04:12:35;96956.16;;;9.23;100.00
21817;BME280;13247;47.504;7.382;2023-02-23T04:15:52;96954.06;;;9.34;100.00
21817;BME280;13247;47.504;7.382;2023-02-23T04:18:39;96943.81;;;9.28;100.00
21817;BME280;13247;47.504;7.382;2023-02-23T04:21:24;96954.88;;;9.10;100.00
21817;BME280;13247;47.504;7.382;2023-02-23T04:24:09;96960.44;;;8.99;100.00
21817;BME280;13247;47.504;7.382;2023-02-23T04:26:54;96955.44;;;8.92;100.00
21817;BME280;13247;47.504;7.382;2023-02-23T04:29:39;96952.47;;;9.02;100.00
21817;BME280;13247;47.504;7.382;2023-02-23T04:32:24;96962.13;;;9.00;100.00
21817;BME280;13247;47.504;7.382;2023-02-23T04:35:09;96963.09;;;8.98;100.00
21817;BME280;13247;47.504;7.382;2023-02-23T04:37:54;96965.63;;;9.01;100.00
21817;BME280;13247;47.504;7.382;2023-02-23T04:40:39;96957.16;;;8.93;100.00
21817;BME280;13247;47.504;7.382;2023-02-23T04:43:24;96965.81;;;8.95;100.00
21817;BME280;13247;47.504;7.382;2023-02-23T04:46:08;96967.47;;;8.97;100.00
21817;BME280;13247;47.504;7.382;2023-02-23T04:48:53;96972.66;;;8.99;100.00
21817;BME280;13247;47.504;7.382;2023-02-23T04:51:37;96963.81;;;9.03;100.00
21817;BME280;13247;47.504;7.382;2023-02-23T04:54:22;96968.63;;;9.15;100.00
21817;BME280;13247;47.504;7.382;2023-02-23T04:57:07;96958.69;;;9.26;100.00
21817;BME280;13247;47.504;7.382;2023-02-23T04:59:52;96960.31;;;9.30;100.00
21817;BME280;13247;47.504;7.382;2023-02-23T05:02:37;96962.59;;;9.13;100.00
21817;BME280;13247;47.504;7.382;2023-02-23T05:05:22;96961.00;;;9.09;100.00
21817;BME280;13247;47.504;7.382;2023-02-23T05:08:06;96963.59;;;9.09;100.00
21817;BME280;13247;47.504;7.382;2023-02-23T05:10:51;96960.19;;;9.07;100.00
21817;BME280;13247;47.504;7.382;2023-02-23T05:13:36;96971.19;;;9.18;100.00
21817;BME280;13247;47.504;7.382;2023-02-23T05:16:21;96960.50;;;9.24;100.00
21817;BME280;13247;47.504;7.382;2023-02-23T05:19:06;96970.50;;;9.11;100.00
21817;BME280;13247;47.504;7.382;2023-02-23T05:21:51;96972.72;;;8.96;100.00
21817;BME280;13247;47.504;7.382;2023-02-23T05:24:36;96974.72;;;8.88;100.00
21817;BME280;13247;47.504;7.382;2023-02-23T05:27:20;96969.31;;;8.94;100.00
21817;BME280;13247;47.504;7.382;2023-02-23T05:30:06;96974.53;;;8.94;100.00
21817;BME280;13247;47.504;7.382;2023-02-23T05:32:53;96960.31;;;9.02;100.00
21817;BME280;13247;47.504;7.382;2023-02-23T05:35:40;96966.50;;;9.00;100.00
21817;BME280;13247;47.504;7.382;2023-02-23T05:38:25;96963.28;;;8.92;100.00
21817;BME280;13247;47.504;7.382;2023-02-23T05:41:13;96963.88;;;9.00;100.00
21817;BME280;13247;47.504;7.382;2023-02-23T05:43:58;96966.69;;;8.94;100.00
21817;BME280;13247;47.504;7.382;2023-02-23T05:46:45;96961.47;;;8.94;100.00
21817;BME280;13247;47.504;7.382;2023-02-23T05:49:31;96964.94;;;8.94;100.00
21817;BME280;13247;47.504;7.382;2023-02-23T05:52:15;96956.75;;;9.05;100.00
21817;BME280;13247;47.504;7.382;2023-02-23T05:54:59;96960.78;;;8.89;100.00
21817;BME280;13247;47.504;7.382;2023-02-23T05:57:44;96963.38;;;8.89;100.00
21817;BME280;13247;47.504;7.382;2023-02-23T06:00:29;96965.13;;;8.88;100.00
21817;BME280;13247;47.504;7.382;2023-02-23T06:03:13;96958.25;;;8.86;100.00
21817;BME280;13247;47.504;7.382;2023-02-23T06:05:59;96969.22;;;8.97;100.00
21817;BME280;13247;47.504;7.382;2023-02-23T06:08:44;96963.06;;;8.99;100.00
21817;BME280;13247;47.504;7.382;2023-02-23T06:11:29;96959.81;;;8.91;100.00
21817;BME280;13247;47.504;7.382;2023-02-23T06:14:14;96967.09;;;8.82;100.00
21817;BME280;13247;47.504;7.382;2023-02-23T06:17:00;96967.41;;;8.71;100.00
21817;BME280;13247;47.504;7.382;2023-02-23T06:19:45;96967.72;;;8.60;100.00
21817;BME280;13247;47.504;7.382;2023-02-23T06:22:30;96967.53;;;8.66;100.00
21817;BME280;13247;47.504;7.382;2023-02-23T06:25:15;96968.63;;;8.59;100.00
21817;BME280;13247;47.504;7.382;2023-02-23T06:28:00;96970.16;;;8.66;100.00
21817;BME280;13247;47.504;7.382;2023-02-23T06:30:44;96971.88;;;8.67;100.00
21817;BME280;13247;47.504;7.382;2023-02-23T06:33:30;96978.72;;;8.72;100.00
21817;BME280;13247;47.504;7.382;2023-02-23T06:36:14;96975.97;;;8.76;100.00
21817;BME280;13247;47.504;7.382;2023-02-23T06:38:59;96972.25;;;8.83;100.00
21817;BME280;13247;47.504;7.382;2023-02-23T06:41:45;96972.72;;;8.97;100.00
21817;BME280;13247;47.504;7.382;2023-02-23T06:44:30;96974.53;;;8.94;100.00
21817;BME280;13247;47.504;7.382;2023-02-23T06:47:14;96984.53;;;8.81;100.00
21817;BME280;13247;47.504;7.382;2023-02-23T06:49:59;96984.88;;;8.69;100.00
21817;BME280;13247;47.504;7.382;2023-02-23T06:52:45;96989.25;;;8.68;100.00
21817;BME280;13247;47.504;7.382;2023-02-23T06:55:30;96994.47;;;8.68;100.00
21817;BME280;13247;47.504;7.382;2023-02-23T06:58:15;96989.75;;;8.81;100.00
21817;BME280;13247;47.504;7.382;2023-02-23T07:01:00;96990.34;;;8.91;100.00
21817;BME280;13247;47.504;7.382;2023-02-23T07:03:46;96990.47;;;8.86;100.00
21817;BME280;13247;47.504;7.382;2023-02-23T07:06:30;97001.69;;;8.90;100.00
21817;BME280;13247;47.504;7.382;2023-02-23T07:09:15;97000.13;;;8.84;100.00
21817;BME280;13247;47.504;7.382;2023-02-23T07:12:00;97000.25;;;8.80;100.00
21817;BME280;13247;47.504;7.382;2023-02-23T07:14:44;97001.75;;;9.16;100.00
21817;BME280;13247;47.504;7.382;2023-02-23T07:17:29;97004.22;;;8.93;100.00
21817;BME280;13247;47.504;7.382;2023-02-23T07:20:14;97004.41;;;8.87;100.00
21817;BME280;13247;47.504;7.382;2023-02-23T07:23:00;97005.47;;;8.80;100.00
21817;BME280;13247;47.504;7.382;2023-02-23T07:25:45;97006.09;;;8.88;100.00
21817;BME280;13247;47.504;7.382;2023-02-23T07:28:30;97010.66;;;8.81;100.00
21817;BME280;13247;47.504;7.382;2023-02-23T07:31:14;97019.19;;;8.88;100.00
21817;BME280;13247;47.504;7.382;2023-02-23T07:33:59;97013.09;;;9.15;100.00
21817;BME280;13247;47.504;7.382;2023-02-23T07:36:44;97012.06;;;8.93;100.00
21817;BME280;13247;47.504;7.382;2023-02-23T07:39:28;97016.50;;;8.89;100.00
21817;BME280;13247;47.504;7.382;2023-02-23T07:42:14;97016.38;;;8.94;100.00
21817;BME280;13247;47.504;7.382;2023-02-23T07:44:58;97020.59;;;9.27;100.00
21817;BME280;13247;47.504;7.382;2023-02-23T07:47:44;97018.97;;;9.23;100.00
21817;BME280;13247;47.504;7.382;2023-02-23T07:50:28;97015.44;;;9.24;100.00
21817;BME280;13247;47.504;7.382;2023-02-23T07:53:13;97018.41;;;9.13;100.00
21817;BME280;13247;47.504;7.382;2023-02-23T07:55:59;97022.50;;;9.22;100.00
21817;BME280;13247;47.504;7.382;2023-02-23T07:58:44;97027.13;;;9.40;100.00
21817;BME280;13247;47.504;7.382;2023-02-23T08:01:29;97029.31;;;9.54;100.00
21817;BME280;13247;47.504;7.382;2023-02-23T08:04:14;97029.28;;;9.55;100.00
21817;BME280;13247;47.504;7.382;2023-02-23T08:06:59;97031.88;;;9.55;100.00
21817;BME280;13247;47.504;7.382;2023-02-23T08:09:44;97021.03;;;9.67;100.00
21817;BME280;13247;47.504;7.382;2023-02-23T08:12:28;97020.72;;;10.02;100.00
21817;BME280;13247;47.504;7.382;2023-02-23T08:15:13;97025.03;;;10.03;100.00
21817;BME280;13247;47.504;7.382;2023-02-23T08:17:58;97027.00;;;9.97;100.00
21817;BME280;13247;47.504;7.382;2023-02-23T08:20:42;97026.97;;;9.98;100.00
21817;BME280;13247;47.504;7.382;2023-02-23T08:23:32;97025.78;;;10.07;100.00
21817;BME280;13247;47.504;7.382;2023-02-23T08:26:16;97016.72;;;10.17;100.00
21817;BME280;13247;47.504;7.382;2023-02-23T08:29:01;97024.38;;;10.23;100.00
21817;BME280;13247;47.504;7.382;2023-02-23T08:31:45;97033.53;;;10.36;100.00
21817;BME280;13247;47.504;7.382;2023-02-23T08:34:30;97025.06;;;10.28;100.00
21817;BME280;13247;47.504;7.382;2023-02-23T08:37:15;97025.38;;;10.44;100.00
21817;BME280;13247;47.504;7.382;2023-02-23T08:39:59;97024.28;;;10.74;100.00
21817;BME280;13247;47.504;7.382;2023-02-23T08:42:44;97021.53;;;10.77;100.00
21817;BME280;13247;47.504;7.382;2023-02-23T08:45:28;97022.50;;;10.74;100.00
21817;BME280;13247;47.504;7.382;2023-02-23T08:48:13;97031.00;;;10.81;100.00
21817;BME280;13247;47.504;7.382;2023-02-23T08:50:58;97032.53;;;10.86;100.00
21817;BME280;13247;47.504;7.382;2023-02-23T08:53:43;97026.44;;;10.86;100.00
21817;BME280;13247;47.504;7.382;2023-02-23T08:56:28;97027.00;;;10.94;100.00
21817;BME280;13247;47.504;7.382;2023-02-23T08:59:13;97026.94;;;11.19;100.00
21817;BME280;13247;47.504;7.382;2023-02-23T09:01:58;97030.22;;;11.24;100.00
21817;BME280;13247;47.504;7.382;2023-02-23T09:04:43;97024.13;;;11.23;100.00
21817;BME280;13247;47.504;7.382;2023-02-23T09:07:28;97024.94;;;11.25;100.00
21817;BME280;13247;47.504;7.382;2023-02-23T09:10:18;97020.72;;;11.21;100.00
21817;BME280;13247;47.504;7.382;2023-02-23T09:13:03;97025.66;;;11.29;100.00
21817;BME280;13247;47.504;7.382;2023-02-23T09:15:48;97025.81;;;11.24;100.00
21817;BME280;13247;47.504;7.382;2023-02-23T09:18:33;97027.41;;;11.28;100.00
21817;BME280;13247;47.504;7.382;2023-02-23T09:21:20;97019.66;;;11.47;100.00
21817;BME280;13247;47.504;7.382;2023-02-23T09:24:08;97008.88;;;11.54;100.00
21817;BME280;13247;47.504;7.382;2023-02-23T09:26:52;97014.72;;;11.39;100.00
21817;BME280;13247;47.504;7.382;2023-02-23T09:29:37;97025.06;;;11.44;100.00
21817;BME280;13247;47.504;7.382;2023-02-23T09:32:25;97019.25;;;11.36;100.00
21817;BME280;13247;47.504;7.382;2023-02-23T09:35:10;97034.50;;;11.26;100.00
21817;BME280;13247;47.504;7.382;2023-02-23T09:37:55;97028.28;;;11.29;100.00
21817;BME280;13247;47.504;7.382;2023-02-23T09:40:51;97020.47;;;11.27;100.00
21817;BME280;13247;47.504;7.382;2023-02-23T09:43:47;97024.13;;;11.23;100.00
21817;BME280;13247;47.504;7.382;2023-02-23T09:47:10;97017.06;;;11.25;100.00
21817;BME280;13247;47.504;7.382;2023-02-23T09:49:59;97014.84;;;11.36;100.00
21817;BME280;13247;47.504;7.382;2023-02-23T09:52:52;97018.06;;;11.43;100.00
21817;BME280;13247;47.504;7.382;2023-02-23T09:55:40;97011.34;;;11.57;100.00
21817;BME280;13247;47.504;7.382;2023-02-23T09:58:28;97019.31;;;11.56;100.00
21817;BME280;13247;47.504;7.382;2023-02-23T10:01:47;97007.94;;;11.55;100.00
21817;BME280;13247;47.504;7.382;2023-02-23T10:04:44;97007.81;;;11.58;100.00
21817;BME280;13247;47.504;7.382;2023-02-23T10:07:54;97000.06;;;11.77;100.00
21817;BME280;13247;47.504;7.382;2023-02-23T10:10:46;97005.81;;;11.65;100.00
21817;BME280;13247;47.504;7.382;2023-02-23T10:22:47;96997.41;;;12.19;100.00
21817;BME280;13247;47.504;7.382;2023-02-23T10:25:37;96992.47;;;12.31;100.00
21817;BME280;13247;47.504;7.382;2023-02-23T10:28:25;96995.84;;;12.15;100.00
21817;BME280;13247;47.504;7.382;2023-02-23T10:31:40;96993.41;;;12.10;100.00
21817;BME280;13247;47.504;7.382;2023-02-23T10:34:27;97000.69;;;12.24;100.00
21817;BME280;13247;47.504;7.382;2023-02-23T10:37:15;96992.50;;;12.11;100.00
21817;BME280;13247;47.504;7.382;2023-02-23T10:39:59;96990.03;;;12.47;100.00
21817;BME280;13247;47.504;7.382;2023-02-23T10:42:44;96987.69;;;12.21;100.00
21817;BME280;13247;47.504;7.382;2023-02-23T10:45:35;96989.06;;;12.29;100.00
21817;BME280;13247;47.504;7.382;2023-02-23T10:48:40;96990.50;;;12.36;100.00
21817;BME280;13247;47.504;7.382;2023-02-23T10:51:31;96990.09;;;12.45;100.00
21817;BME280;13247;47.504;7.382;2023-02-23T10:54:40;96990.56;;;12.74;100.00
21817;BME280;13247;47.504;7.382;2023-02-23T10:57:30;96994.84;;;12.76;100.00
21817;BME280;13247;47.504;7.382;2023-02-23T11:03:01;96987.19;;;12.90;100.00
21817;BME280;13247;47.504;7.382;2023-02-23T11:05:49;96984.00;;;13.21;100.00
21817;BME280;13247;47.504;7.382;2023-02-23T11:08:37;96987.72;;;13.17;100.00
21817;BME280;13247;47.504;7.382;2023-02-23T11:11:26;96983.50;;;13.13;100.00
21817;BME280;13247;47.504;7.382;2023-02-23T11:14:16;96986.41;;;13.25;100.00
21817;BME280;13247;47.504;7.382;2023-02-23T11:17:00;96989.16;;;13.04;100.00
21817;BME280;13247;47.504;7.382;2023-02-23T11:19:45;96980.50;;;13.20;100.00
21817;BME280;13247;47.504;7.382;2023-02-23T11:22:35;96985.56;;;13.25;100.00
21817;BME280;13247;47.504;7.382;2023-02-23T11:25:31;96983.00;;;13.59;100.00
21817;BME280;13247;47.504;7.382;2023-02-23T11:28:25;96977.31;;;13.50;100.00
21817;BME280;13247;47.504;7.382;2023-02-23T11:31:18;96979.34;;;13.45;100.00
21817;BME280;13247;47.504;7.382;2023-02-23T11:34:05;96971.78;;;13.37;100.00
21817;BME280;13247;47.504;7.382;2023-02-23T11:37:03;96960.31;;;13.74;100.00
21817;BME280;13247;47.504;7.382;2023-02-23T11:40:00;96964.50;;;13.78;100.00
21817;BME280;13247;47.504;7.382;2023-02-23T11:43:12;96960.72;;;13.66;100.00
21817;BME280;13247;47.504;7.382;2023-02-23T11:46:00;96954.66;;;13.64;100.00
21817;BME280;13247;47.504;7.382;2023-02-23T11:49:00;96950.88;;;13.70;100.00
21817;BME280;13247;47.504;7.382;2023-02-23T11:51:49;96948.84;;;13.92;100.00
21817;BME280;13247;47.504;7.382;2023-02-23T11:54:35;96953.44;;;13.88;100.00
21817;BME280;13247;47.504;7.382;2023-02-23T11:57:28;96947.69;;;13.63;100.00
21817;BME280;13247;47.504;7.382;2023-02-23T12:00:25;96949.78;;;13.74;100.00
21817;BME280;13247;47.504;7.382;2023-02-23T12:03:19;96953.09;;;13.60;100.00
21817;BME280;13247;47.504;7.382;2023-02-23T12:06:05;96942.00;;;13.71;100.00
21817;BME280;13247;47.504;7.382;2023-02-23T12:08:51;96949.91;;;13.36;100.00
21817;BME280;13247;47.504;7.382;2023-02-23T12:11:42;96943.34;;;13.45;100.00
21817;BME280;13247;47.504;7.382;2023-02-23T12:17:37;96949.97;;;13.52;100.00
21817;BME280;13247;47.504;7.382;2023-02-23T12:20:30;96941.69;;;14.11;100.00
21817;BME280;13247;47.504;7.382;2023-02-23T12:23:23;96936.75;;;13.88;100.00
21817;BME280;13247;47.504;7.382;2023-02-23T12:26:19;96935.19;;;13.67;100.00
21817;BME280;13247;47.504;7.382;2023-02-23T12:29:21;96928.28;;;14.15;100.00
21817;BME280;13247;47.504;7.382;2023-02-23T12:32:38;96935.66;;;13.92;100.00
21817;BME280;13247;47.504;7.382;2023-02-23T12:35:45;96927.63;;;13.95;100.00
21817;BME280;13247;47.504;7.382;2023-02-23T12:41:37;96934.00;;;14.24;100.00
21817;BME280;13247;47.504;7.382;2023-02-23T12:44:34;96932.41;;;14.21;100.00
21817;BME280;13247;47.504;7.382;2023-02-23T12:50:52;96923.88;;;14.16;100.00
21817;BME280;13247;47.504;7.382;2023-02-23T12:53:43;96921.88;;;14.04;100.00
21817;BME280;13247;47.504;7.382;2023-02-23T13:02:47;96923.03;;;14.33;100.00
21817;BME280;13247;47.504;7.382;2023-02-23T13:05:54;96914.53;;;14.43;100.00
21817;BME280;13247;47.504;7.382;2023-02-23T13:12:19;96913.91;;;14.38;100.00
21817;BME280;13247;47.504;7.382;2023-02-23T13:20:57;96900.19;;;14.64;100.00
21817;BME280;13247;47.504;7.382;2023-02-23T13:24:06;96904.66;;;14.31;100.00
21817;BME280;13247;47.504;7.382;2023-02-23T13:29:55;96896.78;;;14.62;100.00
21817;BME280;13247;47.504;7.382;2023-02-23T13:32:42;96898.81;;;14.57;100.00
21817;BME280;13247;47.504;7.382;2023-02-23T13:35:30;96909.34;;;14.42;100.00
21817;BME280;13247;47.504;7.382;2023-02-23T13:38:33;96920.19;;;14.53;100.00
21817;BME280;13247;47.504;7.382;2023-02-23T13:41:40;96908.69;;;14.54;100.00
21817;BME280;13247;47.504;7.382;2023-02-23T13:44:40;96914.59;;;14.74;100.00
21817;BME280;13247;47.504;7.382;2023-02-23T13:53:04;96893.22;;;14.63;100.00
21817;BME280;13247;47.504;7.382;2023-02-23T13:55:50;96892.63;;;14.89;100.00
21817;BME280;13247;47.504;7.382;2023-02-23T13:58:37;96895.59;;;14.68;100.00
21817;BME280;13247;47.504;7.382;2023-02-23T14:01:37;96888.63;;;15.14;100.00
21817;BME280;13247;47.504;7.382;2023-02-23T14:04:28;96891.09;;;15.17;100.00
21817;BME280;13247;47.504;7.382;2023-02-23T14:07:28;96889.22;;;14.87;100.00
21817;BME280;13247;47.504;7.382;2023-02-23T14:16:13;96890.09;;;15.04;100.00
21817;BME280;13247;47.504;7.382;2023-02-23T14:19:13;96881.22;;;15.20;100.00
21817;BME280;13247;47.504;7.382;2023-02-23T14:22:08;96872.44;;;15.20;100.00
21817;BME280;13247;47.504;7.382;2023-02-23T14:31:16;96863.91;;;15.30;100.00
21817;BME280;13247;47.504;7.382;2023-02-23T14:34:11;96878.84;;;15.00;100.00
21817;BME280;13247;47.504;7.382;2023-02-23T14:36:56;96883.25;;;15.15;100.00
21817;BME280;13247;47.504;7.382;2023-02-23T14:39:49;96866.94;;;15.23;100.00
21817;BME280;13247;47.504;7.382;2023-02-23T14:42:38;96862.41;;;15.56;100.00
21817;BME280;13247;47.504;7.382;2023-02-23T14:45:29;96864.00;;;15.88;97.59
21817;BME280;13247;47.504;7.382;2023-02-23T14:48:15;96861.75;;;15.96;94.49
21817;BME280;13247;47.504;7.382;2023-02-23T14:51:19;96861.50;;;16.01;92.74
21817;BME280;13247;47.504;7.382;2023-02-23T14:54:11;96861.00;;;16.08;91.27
21817;BME280;13247;47.504;7.382;2023-02-23T14:57:01;96861.00;;;16.08;91.02
21817;BME280;13247;47.504;7.382;2023-02-23T14:59:58;96860.84;;;16.11;88.72
21817;BME280;13247;47.504;7.382;2023-02-23T15:03:04;96856.63;;;15.79;89.54
21817;BME280;13247;47.504;7.382;2023-02-23T15:05:55;96859.66;;;15.43;96.08
21817;BME280;13247;47.504;7.382;2023-02-23T15:08:43;96855.53;;;15.67;95.01
21817;BME280;13247;47.504;7.382;2023-02-23T15:11:29;96851.91;;;15.84;91.47
21817;BME280;13247;47.504;7.382;2023-02-23T15:14:17;96852.38;;;15.77;91.45
21817;BME280;13247;47.504;7.382;2023-02-23T15:17:02;96855.88;;;15.91;88.61
21817;BME280;13247;47.504;7.382;2023-02-23T15:19:52;96851.72;;;15.28;97.24
21817;BME280;13247;47.504;7.382;2023-02-23T15:22:39;96850.84;;;15.27;95.52
21817;BME280;13247;47.504;7.382;2023-02-23T15:25:38;96853.56;;;15.41;93.07
21817;BME280;13247;47.504;7.382;2023-02-23T15:28:26;96854.72;;;15.22;92.95
21817;BME280;13247;47.504;7.382;2023-02-23T15:31:12;96856.28;;;15.55;92.69
21817;BME280;13247;47.504;7.382;2023-02-23T15:33:57;96859.78;;;15.56;93.27
21817;BME280;13247;47.504;7.382;2023-02-23T15:36:43;96860.69;;;15.55;97.18
21817;BME280;13247;47.504;7.382;2023-02-23T15:39:58;96857.41;;;15.51;100.00
21817;BME280;13247;47.504;7.382;2023-02-23T15:42:44;96863.63;;;15.35;100.00
21817;BME280;13247;47.504;7.382;2023-02-23T15:46:11;96853.34;;;15.15;100.00
21817;BME280;13247;47.504;7.382;2023-02-23T15:48:49;96860.19;;;15.03;100.00
21817;BME280;13247;47.504;7.382;2023-02-23T15:51:42;96856.72;;;14.71;100.00
21817;BME280;13247;47.504;7.382;2023-02-23T15:54:42;96856.00;;;14.83;100.00
21817;BME280;13247;47.504;7.382;2023-02-23T15:57:32;96855.56;;;14.60;100.00
21817;BME280;13247;47.504;7.382;2023-02-23T16:01:24;96859.41;;;14.54;100.00
21817;BME280;13247;47.504;7.382;2023-02-23T16:03:56;96860.34;;;14.38;100.00
21817;BME280;13247;47.504;7.382;2023-02-23T16:06:53;96862.44;;;14.14;100.00
21817;BME280;13247;47.504;7.382;2023-02-23T16:09:45;96854.13;;;13.89;100.00
21817;BME280;13247;47.504;7.382;2023-02-23T16:12:37;96854.50;;;13.81;100.00
21817;BME280;13247;47.504;7.382;2023-02-23T16:15:28;96853.50;;;13.67;100.00
21817;BME280;13247;47.504;7.382;2023-02-23T16:18:19;96849.34;;;13.63;100.00
21817;BME280;13247;47.504;7.382;2023-02-23T16:21:10;96858.31;;;13.42;100.00
21817;BME280;13247;47.504;7.382;2023-02-23T16:24:08;96855.38;;;13.48;100.00
21817;BME280;13247;47.504;7.382;2023-02-23T16:26:57;96849.72;;;13.21;100.00
21817;BME280;13247;47.504;7.382;2023-02-23T16:29:44;96856.91;;;12.99;100.00
21817;BME280;13247;47.504;7.382;2023-02-23T16:32:36;96862.66;;;12.90;100.00